createdAt,value
2022-12-27T00:00:07.157Z,30.15
2022-12-27T00:00:38.676Z,30.12
2022-12-27T00:01:10.077Z,30.12
2022-12-27T00:01:41.554Z,30.24
2022-12-27T00:02:13.027Z,30.16
2022-12-27T00:02:44.565Z,30.23
2022-12-27T00:03:15.925Z,30.21
2022-12-27T00:03:47.319Z,30.23
2022-12-27T00:04:18.751Z,30.25
2022-12-27T00:04:50.155Z,30.20
2022-12-27T00:05:21.548Z,30.13
2022-12-27T00:05:52.976Z,30.04
2022-12-27T00:06:24.416Z,30.05
2022-12-27T00:06:55.839Z,30.21
2022-12-27T00:07:27.253Z,30.29
2022-12-27T00:07:58.728Z,30.31
2022-12-27T00:08:30.142Z,30.18
2022-12-27T00:09:01.598Z,30.16
2022-12-27T00:09:33.021Z,30.13
2022-12-27T00:10:04.461Z,30.18
2022-12-27T00:10:35.836Z,30.16
2022-12-27T00:11:07.269Z,30.13
2022-12-27T00:11:38.766Z,30.26
2022-12-27T00:12:10.196Z,30.18
2022-12-27T00:12:41.604Z,30.07
2022-12-27T00:13:12.979Z,30.15
2022-12-27T00:13:44.322Z,30.06
2022-12-27T00:14:15.659Z,30.18
2022-12-27T00:14:47.090Z,30.22
2022-12-27T00:15:18.431Z,30.14
2022-12-27T00:15:49.800Z,30.20
2022-12-27T00:16:21.327Z,29.97
2022-12-27T00:16:52.860Z,30.09
2022-12-27T00:17:24.306Z,30.00
2022-12-27T00:17:55.694Z,30.14
2022-12-27T00:18:27.080Z,30.15
2022-12-27T00:18:58.520Z,30.10
2022-12-27T00:19:29.903Z,30.18
2022-12-27T00:20:05.335Z,30.04
2022-12-27T00:20:39.799Z,30.09
2022-12-27T00:21:11.230Z,29.95
2022-12-27T00:21:42.658Z,29.96
2022-12-27T00:22:14.125Z,29.92
2022-12-27T00:22:45.528Z,30.08
2022-12-27T00:23:16.925Z,30.00
2022-12-27T00:23:48.323Z,29.98
2022-12-27T00:24:19.746Z,29.99
2022-12-27T00:24:51.155Z,29.95
2022-12-27T00:25:22.515Z,29.94
2022-12-27T00:25:54.033Z,30.10
2022-12-27T00:26:25.432Z,29.99
2022-12-27T00:26:56.847Z,29.92
2022-12-27T00:27:29.021Z,29.95
2022-12-27T00:28:00.398Z,29.95
2022-12-27T00:28:31.767Z,29.96
2022-12-27T00:29:03.139Z,30.04
2022-12-27T00:29:34.506Z,30.06
2022-12-27T00:30:05.898Z,29.93
2022-12-27T00:30:37.490Z,30.05
2022-12-27T00:31:08.956Z,29.96
2022-12-27T00:31:40.540Z,30.04
2022-12-27T00:32:11.939Z,29.99
2022-12-27T00:32:43.477Z,29.87
2022-12-27T00:33:14.892Z,29.94
2022-12-27T00:33:46.328Z,30.00
2022-12-27T00:34:17.679Z,29.98
2022-12-27T00:34:49.125Z,30.11
2022-12-27T00:35:20.615Z,30.08
2022-12-27T00:35:52.078Z,30.20
2022-12-27T00:36:23.545Z,30.11
2022-12-27T00:36:54.938Z,30.05
2022-12-27T00:37:26.342Z,30.00
2022-12-27T00:37:57.770Z,30.00
2022-12-27T00:38:29.132Z,29.96
2022-12-27T00:39:00.625Z,29.94
2022-12-27T00:39:32.069Z,29.92
2022-12-27T00:40:03.441Z,29.95
2022-12-27T00:40:34.868Z,30.00
2022-12-27T00:41:06.244Z,30.02
2022-12-27T00:41:37.648Z,29.96
2022-12-27T00:42:09.068Z,30.03
2022-12-27T00:42:40.449Z,29.92
2022-12-27T00:43:11.955Z,29.97
2022-12-27T00:43:43.257Z,29.97
2022-12-27T00:44:14.703Z,30.03
2022-12-27T00:44:46.085Z,29.88
2022-12-27T00:45:17.488Z,29.90
2022-12-27T00:45:48.928Z,29.81
2022-12-27T00:46:20.360Z,29.70
2022-12-27T00:46:51.755Z,29.87
2022-12-27T00:47:23.158Z,29.93
2022-12-27T00:47:54.526Z,30.07
2022-12-27T00:48:26.018Z,30.09
2022-12-27T00:48:57.403Z,29.97
2022-12-27T00:49:28.875Z,29.94
2022-12-27T00:50:00.320Z,29.88
2022-12-27T00:50:31.722Z,29.98
2022-12-27T00:51:03.088Z,29.97
2022-12-27T00:51:34.479Z,29.96
2022-12-27T00:52:05.866Z,29.95
2022-12-27T00:52:37.256Z,30.13
2022-12-27T00:53:08.644Z,30.06
2022-12-27T00:53:40.027Z,29.98
2022-12-27T00:54:11.448Z,30.06
2022-12-27T00:54:42.819Z,30.03
2022-12-27T00:55:14.152Z,29.94
2022-12-27T00:55:45.611Z,30.20
2022-12-27T00:56:16.995Z,30.04
2022-12-27T00:56:48.429Z,30.08
2022-12-27T00:57:19.822Z,30.04
2022-12-27T00:57:51.199Z,30.00
2022-12-27T00:58:22.632Z,30.04
2022-12-27T00:58:54.202Z,30.17
2022-12-27T00:59:25.584Z,30.07
2022-12-27T00:59:57.126Z,30.15
2022-12-27T01:00:28.464Z,30.14
2022-12-27T01:00:59.916Z,30.08
2022-12-27T01:01:31.419Z,30.22
2022-12-27T01:02:03.035Z,30.16
2022-12-27T01:02:34.490Z,30.16
2022-12-27T01:03:05.939Z,30.26
2022-12-27T01:03:37.289Z,30.13
2022-12-27T01:04:10.680Z,30.06
2022-12-27T01:04:42.124Z,30.26
2022-12-27T01:05:13.508Z,30.24
2022-12-27T01:05:44.880Z,29.96
2022-12-27T01:06:16.316Z,29.97
2022-12-27T01:06:47.696Z,30.24
2022-12-27T01:07:19.106Z,30.09
2022-12-27T01:07:50.521Z,30.02
2022-12-27T01:08:21.872Z,29.93
2022-12-27T01:08:53.223Z,30.05
2022-12-27T01:09:24.652Z,30.12
2022-12-27T01:09:56.099Z,30.14
2022-12-27T01:10:27.490Z,30.17
2022-12-27T01:10:58.867Z,30.06
2022-12-27T01:11:30.280Z,30.14
2022-12-27T01:12:01.694Z,30.04
2022-12-27T01:12:33.078Z,30.15
2022-12-27T01:13:04.457Z,29.95
2022-12-27T01:13:35.893Z,30.16
2022-12-27T01:14:07.260Z,29.99
2022-12-27T01:14:38.715Z,29.98
2022-12-27T01:15:10.143Z,29.88
2022-12-27T01:15:41.577Z,30.07
2022-12-27T01:16:12.975Z,30.15
2022-12-27T01:16:44.404Z,30.08
2022-12-27T01:17:15.918Z,30.10
2022-12-27T01:17:47.368Z,29.95
2022-12-27T01:18:18.797Z,30.04
2022-12-27T01:18:50.176Z,30.14
2022-12-27T01:19:21.818Z,30.15
2022-12-27T01:19:53.310Z,30.14
2022-12-27T01:20:24.711Z,30.21
2022-12-27T01:20:56.147Z,30.18
2022-12-27T01:21:27.513Z,30.00
2022-12-27T01:21:58.920Z,29.89
2022-12-27T01:22:30.314Z,29.96
2022-12-27T01:23:01.696Z,30.08
2022-12-27T01:23:33.101Z,30.13
2022-12-27T01:24:04.531Z,30.05
2022-12-27T01:24:35.937Z,29.97
2022-12-27T01:25:07.451Z,30.23
2022-12-27T01:25:38.857Z,30.13
2022-12-27T01:26:10.226Z,30.12
2022-12-27T01:26:41.622Z,30.21
2022-12-27T01:27:13.026Z,30.09
2022-12-27T01:27:44.441Z,30.00
2022-12-27T01:28:15.882Z,30.13
2022-12-27T01:28:47.293Z,30.06
2022-12-27T01:29:18.672Z,30.22
2022-12-27T01:29:50.057Z,30.34
2022-12-27T01:30:21.485Z,30.05
2022-12-27T01:30:52.895Z,30.19
2022-12-27T01:31:24.324Z,30.14
2022-12-27T01:31:55.929Z,30.14
2022-12-27T01:32:27.269Z,30.12
2022-12-27T01:32:58.807Z,30.19
2022-12-27T01:33:30.172Z,30.23
2022-12-27T01:34:01.534Z,30.22
2022-12-27T01:34:32.929Z,29.96
2022-12-27T01:35:04.322Z,30.12
2022-12-27T01:35:35.725Z,30.09
2022-12-27T01:36:07.080Z,30.17
2022-12-27T01:36:38.526Z,29.98
2022-12-27T01:37:09.918Z,30.05
2022-12-27T01:37:41.313Z,30.14
2022-12-27T01:38:12.720Z,30.00
2022-12-27T01:38:44.145Z,29.93
2022-12-27T01:39:15.515Z,30.13
2022-12-27T01:39:46.898Z,29.95
2022-12-27T01:40:18.361Z,30.07
2022-12-27T01:40:49.802Z,30.19
2022-12-27T01:41:21.207Z,29.94
2022-12-27T01:41:52.538Z,30.02
2022-12-27T01:42:23.900Z,30.17
2022-12-27T01:42:55.381Z,30.22
2022-12-27T01:43:26.846Z,30.14
2022-12-27T01:43:58.222Z,29.90
2022-12-27T01:44:29.585Z,30.11
2022-12-27T01:45:01.325Z,29.80
2022-12-27T01:45:34.641Z,29.94
2022-12-27T01:46:06.097Z,29.98
2022-12-27T01:46:37.490Z,30.13
2022-12-27T01:47:08.913Z,30.00
2022-12-27T01:47:40.302Z,30.14
2022-12-27T01:48:11.696Z,29.97
2022-12-27T01:48:43.208Z,29.99
2022-12-27T01:49:14.647Z,29.81
2022-12-27T01:49:46.031Z,30.01
2022-12-27T01:50:17.384Z,30.00
2022-12-27T01:50:48.833Z,30.06
2022-12-27T01:51:20.185Z,30.00
2022-12-27T01:51:51.541Z,30.14
2022-12-27T01:52:22.920Z,30.08
2022-12-27T01:52:54.280Z,30.25
2022-12-27T01:53:25.643Z,30.06
2022-12-27T01:53:57.095Z,29.96
2022-12-27T01:54:28.414Z,30.16
2022-12-27T01:54:59.769Z,30.02
2022-12-27T01:55:31.230Z,30.22
2022-12-27T01:56:02.653Z,30.13
2022-12-27T01:56:34.090Z,29.91
2022-12-27T01:57:05.475Z,29.99
2022-12-27T01:57:36.837Z,29.93
2022-12-27T01:58:08.228Z,30.09
2022-12-27T01:58:39.633Z,30.12
2022-12-27T01:59:11.061Z,30.08
2022-12-27T01:59:42.485Z,30.24
2022-12-27T02:00:13.868Z,30.18
2022-12-27T02:00:45.336Z,29.97
2022-12-27T02:01:16.907Z,30.13
2022-12-27T02:01:48.536Z,30.15
2022-12-27T02:02:20.057Z,30.04
2022-12-27T02:02:51.628Z,30.10
2022-12-27T02:03:23.058Z,30.06
2022-12-27T02:03:54.459Z,30.12
2022-12-27T02:04:25.825Z,30.08
2022-12-27T02:04:57.181Z,30.15
2022-12-27T02:05:28.624Z,30.04
2022-12-27T02:06:00.011Z,30.02
2022-12-27T02:06:31.378Z,30.10
2022-12-27T02:07:02.843Z,30.08
2022-12-27T02:07:34.246Z,30.00
2022-12-27T02:08:05.633Z,30.05
2022-12-27T02:08:37.080Z,30.13
2022-12-27T02:09:08.447Z,30.05
2022-12-27T02:09:39.910Z,30.06
2022-12-27T02:10:11.260Z,29.98
2022-12-27T02:10:42.717Z,30.01
2022-12-27T02:11:14.135Z,30.05
2022-12-27T02:11:45.606Z,30.10
2022-12-27T02:12:16.986Z,30.16
2022-12-27T02:12:49.107Z,30.07
2022-12-27T02:13:20.487Z,30.22
2022-12-27T02:13:51.866Z,30.05
2022-12-27T02:14:27.671Z,30.12
2022-12-27T02:14:59.649Z,30.12
2022-12-27T02:15:31.023Z,30.16
2022-12-27T02:16:02.428Z,30.19
2022-12-27T02:16:33.860Z,30.19
2022-12-27T02:17:05.378Z,30.14
2022-12-27T02:17:36.851Z,30.09
2022-12-27T02:18:08.226Z,30.14
2022-12-27T02:18:39.614Z,30.22
2022-12-27T02:19:10.992Z,30.10
2022-12-27T02:19:42.428Z,30.16
2022-12-27T02:20:13.969Z,30.01
2022-12-27T02:20:45.350Z,30.23
2022-12-27T02:21:16.744Z,30.10
2022-12-27T02:21:49.167Z,30.26
2022-12-27T02:22:20.547Z,30.21
2022-12-27T02:22:51.923Z,30.09
2022-12-27T02:23:23.278Z,30.06
2022-12-27T02:23:54.632Z,30.12
2022-12-27T02:24:26.090Z,30.12
2022-12-27T02:24:57.605Z,30.14
2022-12-27T02:25:29.147Z,30.12
2022-12-27T02:26:00.544Z,30.15
2022-12-27T02:26:31.925Z,30.28
2022-12-27T02:27:03.356Z,30.00
2022-12-27T02:27:34.726Z,30.22
2022-12-27T02:28:06.169Z,30.23
2022-12-27T02:28:37.552Z,30.11
2022-12-27T02:29:08.911Z,30.13
2022-12-27T02:29:40.250Z,30.19
2022-12-27T02:30:11.603Z,30.19
2022-12-27T02:30:43.035Z,30.10
2022-12-27T02:31:14.543Z,29.92
2022-12-27T02:31:45.984Z,30.14
2022-12-27T02:32:17.411Z,30.16
2022-12-27T02:32:48.783Z,30.23
2022-12-27T02:33:20.179Z,30.10
2022-12-27T02:33:51.567Z,30.24
2022-12-27T02:34:22.948Z,30.21
2022-12-27T02:34:54.359Z,29.96
2022-12-27T02:35:25.704Z,30.13
2022-12-27T02:35:57.142Z,30.15
2022-12-27T02:36:28.490Z,30.12
2022-12-27T02:36:59.901Z,30.16
2022-12-27T02:37:31.258Z,30.18
2022-12-27T02:38:02.643Z,30.29
2022-12-27T02:38:34.049Z,30.08
2022-12-27T02:39:05.478Z,30.21
2022-12-27T02:39:36.887Z,30.02
2022-12-27T02:40:08.260Z,30.07
2022-12-27T02:40:39.621Z,30.23
2022-12-27T02:41:11.064Z,30.15
2022-12-27T02:41:42.459Z,30.19
2022-12-27T02:42:13.845Z,30.16
2022-12-27T02:42:45.248Z,30.33
2022-12-27T02:43:16.647Z,30.22
2022-12-27T02:43:47.973Z,30.17
2022-12-27T02:44:19.335Z,30.16
2022-12-27T02:44:50.692Z,30.07
2022-12-27T02:45:22.103Z,30.20
2022-12-27T02:45:53.505Z,30.20
2022-12-27T02:46:25.109Z,30.06
2022-12-27T02:46:56.500Z,30.20
2022-12-27T02:47:27.826Z,30.31
2022-12-27T02:47:59.204Z,30.18
2022-12-27T02:48:30.568Z,30.12
2022-12-27T02:49:01.961Z,30.08
2022-12-27T02:49:33.368Z,30.12
2022-12-27T02:50:04.768Z,30.21
2022-12-27T02:50:36.206Z,30.22
2022-12-27T02:51:07.610Z,30.16
2022-12-27T02:51:39.076Z,30.13
2022-12-27T02:52:10.541Z,30.18
2022-12-27T02:52:41.916Z,30.20
2022-12-27T02:53:13.300Z,29.96
2022-12-27T02:53:44.668Z,30.22
2022-12-27T02:54:16.053Z,30.19
2022-12-27T02:54:47.427Z,30.13
2022-12-27T02:55:18.882Z,30.23
2022-12-27T02:55:50.299Z,30.32
2022-12-27T02:56:21.679Z,30.12
2022-12-27T02:56:53.106Z,30.31
2022-12-27T02:57:24.459Z,30.17
2022-12-27T02:57:55.845Z,30.21
2022-12-27T02:58:27.287Z,30.16
2022-12-27T02:58:58.860Z,30.18
2022-12-27T02:59:30.232Z,30.12
2022-12-27T03:00:03.900Z,30.20
2022-12-27T03:00:35.258Z,30.22
2022-12-27T03:01:06.637Z,30.20
2022-12-27T03:01:38.276Z,30.30
2022-12-27T03:02:09.918Z,30.18
2022-12-27T03:02:41.497Z,30.23
2022-12-27T03:03:13.001Z,30.18
2022-12-27T03:03:44.947Z,30.07
2022-12-27T03:04:16.523Z,30.17
2022-12-27T03:04:47.976Z,30.29
2022-12-27T03:05:19.373Z,30.28
2022-12-27T03:05:50.749Z,30.20
2022-12-27T03:06:22.159Z,30.29
2022-12-27T03:06:53.562Z,30.26
2022-12-27T03:07:24.988Z,30.30
2022-12-27T03:07:56.417Z,30.12
2022-12-27T03:08:27.783Z,30.31
2022-12-27T03:08:59.307Z,30.24
2022-12-27T03:09:30.633Z,30.15
2022-12-27T03:10:02.037Z,30.22
2022-12-27T03:10:33.419Z,30.23
2022-12-27T03:11:04.798Z,30.32
2022-12-27T03:11:36.174Z,30.18
2022-12-27T03:12:07.560Z,30.21
2022-12-27T03:12:39.023Z,30.26
2022-12-27T03:13:10.431Z,30.33
2022-12-27T03:13:41.749Z,30.21
2022-12-27T03:14:13.146Z,30.20
2022-12-27T03:14:44.581Z,30.25
2022-12-27T03:15:15.936Z,30.24
2022-12-27T03:15:47.325Z,30.26
2022-12-27T03:16:18.798Z,30.28
2022-12-27T03:16:50.241Z,30.35
2022-12-27T03:17:21.678Z,30.32
2022-12-27T03:17:53.122Z,30.14
2022-12-27T03:18:24.505Z,30.24
2022-12-27T03:18:55.938Z,30.10
2022-12-27T03:19:27.314Z,30.36
2022-12-27T03:19:58.712Z,30.31
2022-12-27T03:20:30.113Z,30.35
2022-12-27T03:21:01.496Z,30.17
2022-12-27T03:21:32.863Z,30.26
2022-12-27T03:22:04.377Z,30.35
2022-12-27T03:22:35.733Z,30.26
2022-12-27T03:23:07.256Z,30.23
2022-12-27T03:23:38.607Z,30.32
2022-12-27T03:24:09.998Z,30.36
2022-12-27T03:24:41.456Z,30.34
2022-12-27T03:25:12.816Z,30.36
2022-12-27T03:25:44.245Z,30.31
2022-12-27T03:26:15.657Z,30.34
2022-12-27T03:26:47.006Z,30.30
2022-12-27T03:27:18.594Z,30.35
2022-12-27T03:27:49.963Z,30.41
2022-12-27T03:28:21.448Z,30.47
2022-12-27T03:28:52.883Z,30.45
2022-12-27T03:29:24.255Z,30.38
2022-12-27T03:29:55.627Z,30.33
2022-12-27T03:30:26.968Z,30.31
2022-12-27T03:30:58.373Z,30.44
2022-12-27T03:31:29.895Z,30.36
2022-12-27T03:32:01.317Z,30.44
2022-12-27T03:32:32.719Z,30.50
2022-12-27T03:33:04.102Z,30.42
2022-12-27T03:33:35.562Z,30.54
2022-12-27T03:34:06.948Z,30.38
2022-12-27T03:34:38.339Z,30.53
2022-12-27T03:35:09.756Z,30.37
2022-12-27T03:35:41.151Z,30.36
2022-12-27T03:36:12.542Z,30.42
2022-12-27T03:36:43.913Z,30.48
2022-12-27T03:37:15.367Z,30.55
2022-12-27T03:37:46.772Z,30.35
2022-12-27T03:38:18.149Z,30.32
2022-12-27T03:38:49.610Z,30.42
2022-12-27T03:39:21.010Z,30.36
2022-12-27T03:39:52.453Z,30.31
2022-12-27T03:40:23.868Z,30.41
2022-12-27T03:40:55.279Z,30.56
2022-12-27T03:41:26.676Z,30.38
2022-12-27T03:41:58.052Z,30.66
2022-12-27T03:42:29.431Z,30.42
2022-12-27T03:43:00.792Z,30.52
2022-12-27T03:43:32.191Z,30.16
2022-12-27T03:44:03.603Z,30.23
2022-12-27T03:44:35.045Z,30.45
2022-12-27T03:45:06.387Z,30.34
2022-12-27T03:45:37.796Z,30.34
2022-12-27T03:46:09.194Z,30.51
2022-12-27T03:46:40.572Z,30.72
2022-12-27T03:47:11.959Z,30.43
2022-12-27T03:47:43.367Z,30.37
2022-12-27T03:48:14.732Z,30.38
2022-12-27T03:48:46.113Z,30.38
2022-12-27T03:49:17.528Z,30.46
2022-12-27T03:49:48.913Z,30.49
2022-12-27T03:50:20.311Z,30.24
2022-12-27T03:50:51.707Z,30.28
2022-12-27T03:51:23.170Z,30.35
2022-12-27T03:51:54.663Z,30.44
2022-12-27T03:52:26.079Z,30.42
2022-12-27T03:52:57.477Z,30.33
2022-12-27T03:53:28.919Z,30.40
2022-12-27T03:54:00.313Z,30.16
2022-12-27T03:54:31.807Z,30.41
2022-12-27T03:55:03.239Z,30.39
2022-12-27T03:55:34.660Z,30.36
2022-12-27T03:56:06.054Z,30.38
2022-12-27T03:56:37.436Z,30.41
2022-12-27T03:57:08.835Z,30.45
2022-12-27T03:57:40.189Z,30.33
2022-12-27T03:58:11.542Z,30.34
2022-12-27T03:58:43.836Z,30.50
2022-12-27T03:59:15.281Z,30.48
2022-12-27T03:59:46.755Z,30.30
2022-12-27T04:00:18.151Z,30.46
2022-12-27T04:00:49.592Z,30.43
2022-12-27T04:01:21.042Z,30.46
2022-12-27T04:01:52.640Z,30.35
2022-12-27T04:02:24.224Z,30.34
2022-12-27T04:02:55.833Z,30.49
2022-12-27T04:03:27.378Z,30.41
2022-12-27T04:03:58.762Z,30.51
2022-12-27T04:04:30.146Z,30.39
2022-12-27T04:05:01.737Z,30.34
2022-12-27T04:05:33.205Z,30.50
2022-12-27T04:06:04.594Z,30.42
2022-12-27T04:06:35.948Z,30.27
2022-12-27T04:07:07.297Z,30.43
2022-12-27T04:07:38.740Z,30.22
2022-12-27T04:08:10.152Z,30.43
2022-12-27T04:08:41.522Z,30.54
2022-12-27T04:09:12.879Z,30.35
2022-12-27T04:09:44.242Z,30.40
2022-12-27T04:10:15.681Z,30.54
2022-12-27T04:10:47.122Z,30.42
2022-12-27T04:11:18.514Z,30.43
2022-12-27T04:11:49.898Z,30.57
2022-12-27T04:12:21.272Z,30.33
2022-12-27T04:12:52.634Z,30.42
2022-12-27T04:13:24.010Z,30.45
2022-12-27T04:13:55.450Z,30.41
2022-12-27T04:14:26.864Z,30.39
2022-12-27T04:14:58.244Z,30.41
2022-12-27T04:15:29.661Z,30.41
2022-12-27T04:16:01.174Z,30.54
2022-12-27T04:16:32.592Z,30.47
2022-12-27T04:17:03.959Z,30.48
2022-12-27T04:17:35.380Z,30.58
2022-12-27T04:18:06.803Z,30.51
2022-12-27T04:18:38.233Z,30.42
2022-12-27T04:19:09.624Z,30.43
2022-12-27T04:19:40.993Z,30.43
2022-12-27T04:20:12.421Z,30.41
2022-12-27T04:20:43.843Z,30.44
2022-12-27T04:21:15.354Z,30.49
2022-12-27T04:21:46.706Z,30.32
2022-12-27T04:22:18.158Z,30.39
2022-12-27T04:22:49.513Z,30.39
2022-12-27T04:23:20.916Z,30.50
2022-12-27T04:23:52.276Z,30.51
2022-12-27T04:24:23.677Z,30.28
2022-12-27T04:24:55.083Z,30.40
2022-12-27T04:25:26.485Z,30.29
2022-12-27T04:25:57.887Z,30.40
2022-12-27T04:26:29.309Z,30.50
2022-12-27T04:27:00.767Z,30.41
2022-12-27T04:27:32.188Z,30.65
2022-12-27T04:28:03.555Z,30.51
2022-12-27T04:28:34.948Z,30.55
2022-12-27T04:29:06.356Z,30.51
2022-12-27T04:29:37.808Z,30.54
2022-12-27T04:30:09.225Z,30.47
2022-12-27T04:30:40.602Z,30.39
2022-12-27T04:31:12.085Z,30.40
2022-12-27T04:31:43.502Z,30.48
2022-12-27T04:32:14.860Z,30.50
2022-12-27T04:32:46.299Z,30.38
2022-12-27T04:33:17.751Z,30.58
2022-12-27T04:33:49.183Z,30.48
2022-12-27T04:34:20.605Z,30.45
2022-12-27T04:34:52.157Z,30.48
2022-12-27T04:35:23.504Z,30.32
2022-12-27T04:35:54.909Z,30.40
2022-12-27T04:36:26.287Z,30.41
2022-12-27T04:36:57.678Z,30.37
2022-12-27T04:37:29.082Z,30.50
2022-12-27T04:38:00.474Z,30.41
2022-12-27T04:38:32.014Z,30.53
2022-12-27T04:39:03.513Z,30.50
2022-12-27T04:39:34.933Z,30.39
2022-12-27T04:40:06.365Z,30.50
2022-12-27T04:40:37.811Z,30.51
2022-12-27T04:41:09.218Z,30.55
2022-12-27T04:41:40.673Z,30.46
2022-12-27T04:42:12.028Z,30.33
2022-12-27T04:42:43.412Z,30.52
2022-12-27T04:43:14.785Z,30.55
2022-12-27T04:43:46.258Z,30.48
2022-12-27T04:44:17.713Z,30.47
2022-12-27T04:44:49.133Z,30.51
2022-12-27T04:45:20.506Z,30.67
2022-12-27T04:45:51.949Z,30.50
2022-12-27T04:46:23.480Z,30.62
2022-12-27T04:46:54.905Z,30.63
2022-12-27T04:47:26.310Z,30.70
2022-12-27T04:47:57.706Z,30.61
2022-12-27T04:48:29.147Z,30.62
2022-12-27T04:49:00.548Z,30.56
2022-12-27T04:49:31.984Z,30.60
2022-12-27T04:50:03.382Z,30.65
2022-12-27T04:50:34.918Z,30.42
2022-12-27T04:51:06.237Z,30.65
2022-12-27T04:51:37.610Z,30.48
2022-12-27T04:52:09.017Z,30.61
2022-12-27T04:52:40.411Z,30.62
2022-12-27T04:53:11.866Z,30.58
2022-12-27T04:53:43.207Z,30.44
2022-12-27T04:54:14.754Z,30.59
2022-12-27T04:54:46.197Z,30.33
2022-12-27T04:55:17.611Z,30.59
2022-12-27T04:55:49.003Z,30.56
2022-12-27T04:56:20.415Z,30.60
2022-12-27T04:56:51.807Z,30.56
2022-12-27T04:57:23.195Z,30.67
2022-12-27T04:57:54.564Z,30.56
2022-12-27T04:58:25.966Z,30.48
2022-12-27T04:58:57.362Z,30.66
2022-12-27T04:59:28.844Z,30.54
2022-12-27T05:00:00.256Z,30.63
2022-12-27T05:00:34.482Z,30.61
2022-12-27T05:01:10.620Z,30.72
2022-12-27T05:01:45.532Z,30.75
2022-12-27T05:02:17.059Z,30.58
2022-12-27T05:02:48.779Z,30.57
2022-12-27T05:03:20.358Z,30.72
2022-12-27T05:03:51.852Z,30.49
2022-12-27T05:04:23.295Z,30.65
2022-12-27T05:04:54.715Z,30.58
2022-12-27T05:05:26.147Z,30.61
2022-12-27T05:05:57.542Z,30.55
2022-12-27T05:06:28.986Z,30.50
2022-12-27T05:07:00.460Z,30.71
2022-12-27T05:07:31.884Z,30.62
2022-12-27T05:08:03.278Z,30.62
2022-12-27T05:08:34.654Z,30.66
2022-12-27T05:09:06.116Z,30.64
2022-12-27T05:09:37.497Z,30.50
2022-12-27T05:10:09.009Z,30.63
2022-12-27T05:10:40.343Z,30.75
2022-12-27T05:11:11.760Z,30.62
2022-12-27T05:11:43.175Z,30.54
2022-12-27T05:12:14.587Z,30.70
2022-12-27T05:12:45.985Z,30.71
2022-12-27T05:13:17.385Z,30.67
2022-12-27T05:13:48.801Z,30.58
2022-12-27T05:14:20.259Z,30.51
2022-12-27T05:14:51.689Z,30.77
2022-12-27T05:15:23.168Z,30.58
2022-12-27T05:15:54.650Z,30.58
2022-12-27T05:16:26.201Z,30.62
2022-12-27T05:16:57.743Z,30.59
2022-12-27T05:17:29.092Z,30.66
2022-12-27T05:18:00.546Z,30.70
2022-12-27T05:18:31.923Z,30.67
2022-12-27T05:19:03.287Z,30.49
2022-12-27T05:19:34.672Z,30.58
2022-12-27T05:20:06.038Z,30.67
2022-12-27T05:20:37.461Z,30.69
2022-12-27T05:21:08.863Z,30.54
2022-12-27T05:21:40.227Z,30.63
2022-12-27T05:22:11.606Z,30.60
2022-12-27T05:22:43.102Z,30.70
2022-12-27T05:23:14.485Z,30.56
2022-12-27T05:23:45.953Z,30.70
2022-12-27T05:24:17.336Z,30.66
2022-12-27T05:24:48.751Z,30.71
2022-12-27T05:25:20.074Z,30.56
2022-12-27T05:25:51.559Z,30.67
2022-12-27T05:26:23.295Z,30.62
2022-12-27T05:26:54.644Z,30.63
2022-12-27T05:27:26.005Z,30.75
2022-12-27T05:27:57.388Z,30.47
2022-12-27T05:28:28.812Z,30.67
2022-12-27T05:29:00.252Z,30.51
2022-12-27T05:29:31.641Z,30.79
2022-12-27T05:30:05.868Z,30.68
2022-12-27T05:30:37.318Z,30.65
2022-12-27T05:31:08.790Z,30.47
2022-12-27T05:31:40.358Z,30.58
2022-12-27T05:32:13.598Z,30.42
2022-12-27T05:32:45.444Z,30.63
2022-12-27T05:33:16.814Z,30.48
2022-12-27T05:33:48.231Z,30.51
2022-12-27T05:34:19.709Z,30.56
2022-12-27T05:34:51.111Z,30.62
2022-12-27T05:35:22.522Z,30.48
2022-12-27T05:35:53.993Z,30.42
2022-12-27T05:36:25.401Z,30.57
2022-12-27T05:36:56.813Z,30.41
2022-12-27T05:37:28.143Z,30.44
2022-12-27T05:37:59.509Z,30.58
2022-12-27T05:38:30.880Z,30.68
2022-12-27T05:39:02.229Z,30.53
2022-12-27T05:39:33.686Z,30.58
2022-12-27T05:40:05.087Z,30.42
2022-12-27T05:40:36.494Z,30.72
2022-12-27T05:41:07.930Z,30.56
2022-12-27T05:41:39.414Z,30.51
2022-12-27T05:42:10.777Z,30.67
2022-12-27T05:42:42.177Z,30.33
2022-12-27T05:43:13.604Z,30.55
2022-12-27T05:43:44.990Z,30.64
2022-12-27T05:44:16.402Z,30.66
2022-12-27T05:44:47.807Z,30.65
2022-12-27T05:45:19.180Z,30.77
2022-12-27T05:45:50.581Z,30.71
2022-12-27T05:46:22.052Z,30.62
2022-12-27T05:46:53.589Z,30.66
2022-12-27T05:47:25.069Z,30.68
2022-12-27T05:47:56.436Z,30.75
2022-12-27T05:48:27.780Z,30.68
2022-12-27T05:48:59.198Z,30.65
2022-12-27T05:49:30.613Z,30.69
2022-12-27T05:50:02.111Z,30.67
2022-12-27T05:50:33.515Z,30.68
2022-12-27T05:51:04.886Z,30.77
2022-12-27T05:51:36.295Z,30.71
2022-12-27T05:52:07.733Z,30.56
2022-12-27T05:52:41.117Z,30.67
2022-12-27T05:53:12.824Z,30.61
2022-12-27T05:53:44.180Z,30.75
2022-12-27T05:54:15.605Z,30.62
2022-12-27T05:54:47.031Z,30.66
2022-12-27T05:55:18.440Z,30.76
2022-12-27T05:55:49.878Z,30.72
2022-12-27T05:56:21.299Z,30.69
2022-12-27T05:56:52.785Z,30.64
2022-12-27T05:57:24.184Z,30.64
2022-12-27T05:57:55.600Z,30.64
2022-12-27T05:58:26.963Z,30.67
2022-12-27T05:58:58.344Z,30.68
2022-12-27T05:59:29.752Z,30.59
2022-12-27T06:00:01.533Z,30.59
2022-12-27T06:00:35.735Z,30.59
2022-12-27T06:01:07.172Z,30.75
2022-12-27T06:01:38.706Z,30.64
2022-12-27T06:02:10.277Z,30.64
2022-12-27T06:02:42.030Z,30.64
2022-12-27T06:03:13.835Z,30.57
2022-12-27T06:03:45.451Z,30.58
2022-12-27T06:04:16.923Z,30.63
2022-12-27T06:04:48.344Z,30.65
2022-12-27T06:05:19.811Z,30.75
2022-12-27T06:05:51.270Z,30.70
2022-12-27T06:06:22.758Z,30.62
2022-12-27T06:06:54.213Z,30.67
2022-12-27T06:07:25.699Z,30.82
2022-12-27T06:07:57.206Z,30.65
2022-12-27T06:08:28.609Z,30.71
2022-12-27T06:09:00.053Z,30.61
2022-12-27T06:09:31.471Z,30.72
2022-12-27T06:10:02.965Z,30.61
2022-12-27T06:10:34.470Z,30.76
2022-12-27T06:11:05.851Z,30.63
2022-12-27T06:11:37.248Z,30.61
2022-12-27T06:12:08.632Z,30.71
2022-12-27T06:12:40.073Z,30.50
2022-12-27T06:13:11.486Z,30.79
2022-12-27T06:13:42.939Z,30.65
2022-12-27T06:14:14.328Z,30.61
2022-12-27T06:14:45.831Z,30.48
2022-12-27T06:15:17.257Z,30.73
2022-12-27T06:15:48.699Z,30.65
2022-12-27T06:16:20.149Z,30.74
2022-12-27T06:16:51.800Z,30.64
2022-12-27T06:17:23.260Z,30.67
2022-12-27T06:17:54.717Z,30.73
2022-12-27T06:18:26.183Z,30.73
2022-12-27T06:18:57.638Z,30.81
2022-12-27T06:19:29.117Z,30.76
2022-12-27T06:20:00.556Z,30.65
2022-12-27T06:20:31.993Z,30.63
2022-12-27T06:21:03.496Z,30.83
2022-12-27T06:21:34.959Z,30.66
2022-12-27T06:22:06.520Z,30.64
2022-12-27T06:22:37.891Z,30.72
2022-12-27T06:23:09.277Z,30.67
2022-12-27T06:23:40.654Z,30.71
2022-12-27T06:24:12.061Z,30.71
2022-12-27T06:24:43.464Z,30.79
2022-12-27T06:25:14.833Z,30.84
2022-12-27T06:25:46.335Z,30.60
2022-12-27T06:26:17.758Z,30.65
2022-12-27T06:26:49.141Z,30.72
2022-12-27T06:27:20.596Z,30.68
2022-12-27T06:27:51.977Z,30.64
2022-12-27T06:28:23.431Z,30.76
2022-12-27T06:28:54.828Z,30.79
2022-12-27T06:29:26.251Z,30.58
2022-12-27T06:29:57.667Z,30.73
2022-12-27T06:30:34.349Z,30.64
2022-12-27T06:31:07.447Z,30.64
2022-12-27T06:31:38.938Z,30.66
2022-12-27T06:32:10.370Z,30.73
2022-12-27T06:32:41.799Z,30.77
2022-12-27T06:33:13.164Z,30.82
2022-12-27T06:33:44.590Z,30.79
2022-12-27T06:34:16.009Z,30.68
2022-12-27T06:34:47.447Z,30.60
2022-12-27T06:35:18.861Z,30.82
2022-12-27T06:35:50.313Z,30.75
2022-12-27T06:36:21.741Z,30.74
2022-12-27T06:36:53.208Z,30.74
2022-12-27T06:37:24.594Z,30.87
2022-12-27T06:37:56.079Z,30.79
2022-12-27T06:38:27.471Z,30.68
2022-12-27T06:38:58.867Z,30.80
2022-12-27T06:39:30.296Z,30.71
2022-12-27T06:41:17.302Z,30.61
2022-12-27T06:42:01.766Z,30.65
2022-12-27T06:42:46.133Z,30.70
2022-12-27T06:43:27.152Z,30.75
2022-12-27T06:44:13.338Z,30.67
2022-12-27T06:45:08.561Z,30.79
2022-12-27T06:45:52.280Z,30.58
2022-12-27T06:46:36.097Z,30.83
2022-12-27T06:47:22.323Z,30.65
2022-12-27T06:48:12.138Z,30.78
2022-12-27T06:48:55.656Z,30.64